sensor_id;sensor_type;location;lat;lon;timestamp;pressure;altitude;pressure_sealevel;temperature;humidity
13387;BME280;6763;48.524;9.044;2023-03-04T00:01:31;98316.13;;;4.03;51.57
13387;BME280;6763;48.524;9.044;2023-03-04T00:03:56;98320.34;;;4.01;52.47
13387;BME280;6763;48.524;9.044;2023-03-04T00:06:22;98317.78;;;3.99;52.13
13387;BME280;6763;48.524;9.044;2023-03-04T00:08:47;98318.63;;;3.98;52.60
13387;BME280;6763;48.524;9.044;2023-03-04T00:11:13;98324.59;;;3.99;52.55
13387;BME280;6763;48.524;9.044;2023-03-04T00:13:38;98317.78;;;4.01;52.63
13387;BME280;6763;48.524;9.044;2023-03-04T00:16:03;98326.31;;;4.00;52.23
13387;BME280;6763;48.524;9.044;2023-03-04T00:18:29;98318.63;;;3.98;52.10
13387;BME280;6763;48.524;9.044;2023-03-04T00:20:54;98327.09;;;3.94;51.93
13387;BME280;6763;48.524;9.044;2023-03-04T00:23:20;98321.06;;;3.91;51.97
13387;BME280;6763;48.524;9.044;2023-03-04T00:25:45;98317.56;;;3.87;52.04
13387;BME280;6763;48.524;9.044;2023-03-04T00:28:10;98318.38;;;3.85;52.25
13387;BME280;6763;48.524;9.044;2023-03-04T00:30:36;98315.75;;;3.80;52.40
13387;BME280;6763;48.524;9.044;2023-03-04T00:33:01;98317.44;;;3.78;52.03
13387;BME280;6763;48.524;9.044;2023-03-04T00:35:26;98322.50;;;3.75;52.16
13387;BME280;6763;48.524;9.044;2023-03-04T00:37:55;98323.28;;;3.71;52.46
13387;BME280;6763;48.524;9.044;2023-03-04T00:40:20;98317.19;;;3.64;52.31
13387;BME280;6763;48.524;9.044;2023-03-04T00:42:45;98322.25;;;3.61;52.53
13387;BME280;6763;48.524;9.044;2023-03-04T00:45:10;98320.50;;;3.57;52.61
13387;BME280;6763;48.524;9.044;2023-03-04T00:47:36;98317.88;;;3.54;52.84
13387;BME280;6763;48.524;9.044;2023-03-04T00:50:01;98320.38;;;3.50;52.68
13387;BME280;6763;48.524;9.044;2023-03-04T00:52:27;98319.38;;;3.43;52.81
13387;BME280;6763;48.524;9.044;2023-03-04T00:54:52;98321.00;;;3.37;52.81
13387;BME280;6763;48.524;9.044;2023-03-04T00:57:17;98316.63;;;3.33;52.75
13387;BME280;6763;48.524;9.044;2023-03-04T00:59:43;98319.13;;;3.30;52.92
13387;BME280;6763;48.524;9.044;2023-03-04T01:02:09;98320.84;;;3.29;53.15
13387;BME280;6763;48.524;9.044;2023-03-04T01:04:35;98318.22;;;3.26;53.09
13387;BME280;6763;48.524;9.044;2023-03-04T01:07:00;98314.81;;;3.27;52.75
13387;BME280;6763;48.524;9.044;2023-03-04T01:09:25;98319.91;;;3.26;53.21
13387;BME280;6763;48.524;9.044;2023-03-04T01:11:51;98317.34;;;3.24;52.97
13387;BME280;6763;48.524;9.044;2023-03-04T01:14:17;98311.38;;;3.24;53.65
13387;BME280;6763;48.524;9.044;2023-03-04T01:16:42;98315.56;;;3.20;53.62
13387;BME280;6763;48.524;9.044;2023-03-04T01:19:08;98311.25;;;3.19;53.54
13387;BME280;6763;48.524;9.044;2023-03-04T01:21:33;98317.16;;;3.15;53.06
13387;BME280;6763;48.524;9.044;2023-03-04T01:23:59;98316.22;;;3.11;53.45
13387;BME280;6763;48.524;9.044;2023-03-04T01:26:24;98311.03;;;3.07;53.33
13387;BME280;6763;48.524;9.044;2023-03-04T01:28:49;98307.59;;;3.03;53.20
13387;BME280;6763;48.524;9.044;2023-03-04T01:31:15;98307.50;;;3.00;53.37
13387;BME280;6763;48.524;9.044;2023-03-04T01:33:40;98304.09;;;3.00;52.82
13387;BME280;6763;48.524;9.044;2023-03-04T01:36:05;98305.75;;;2.98;53.59
13387;BME280;6763;48.524;9.044;2023-03-04T01:38:31;98303.16;;;2.96;53.24
13387;BME280;6763;48.524;9.044;2023-03-04T01:40:56;98307.38;;;2.94;53.36
13387;BME280;6763;48.524;9.044;2023-03-04T01:43:23;98300.59;;;2.96;53.57
13387;BME280;6763;48.524;9.044;2023-03-04T01:45:50;98300.59;;;2.95;52.88
13387;BME280;6763;48.524;9.044;2023-03-04T01:48:21;98297.09;;;2.91;53.11
13387;BME280;6763;48.524;9.044;2023-03-04T01:50:49;98297.00;;;2.87;52.88
13387;BME280;6763;48.524;9.044;2023-03-04T01:53:23;98302.94;;;2.84;52.80
13387;BME280;6763;48.524;9.044;2023-03-04T01:55:51;98301.97;;;2.79;53.07
13387;BME280;6763;48.524;9.044;2023-03-04T01:58:17;98295.13;;;2.77;52.91
13387;BME280;6763;48.524;9.044;2023-03-04T02:00:42;98295.03;;;2.72;52.82
13387;BME280;6763;48.524;9.044;2023-03-04T02:03:16;98289.88;;;2.71;53.50
13387;BME280;6763;48.524;9.044;2023-03-04T02:05:47;98295.75;;;2.67;53.08
13387;BME280;6763;48.524;9.044;2023-03-04T02:08:13;98283.78;;;2.64;53.19
13387;BME280;6763;48.524;9.044;2023-03-04T02:10:41;98284.63;;;2.65;53.30
13387;BME280;6763;48.524;9.044;2023-03-04T02:13:10;98280.31;;;2.62;53.15
13387;BME280;6763;48.524;9.044;2023-03-04T02:15:36;98277.72;;;2.59;53.45
13387;BME280;6763;48.524;9.044;2023-03-04T02:18:03;98281.91;;;2.57;53.53
13387;BME280;6763;48.524;9.044;2023-03-04T02:20:42;98287.88;;;2.56;53.47
13387;BME280;6763;48.524;9.044;2023-03-04T02:26:13;98279.22;;;2.49;53.70
13387;BME280;6763;48.524;9.044;2023-03-04T02:28:39;98279.13;;;2.46;53.28
13387;BME280;6763;48.524;9.044;2023-03-04T02:31:04;98270.59;;;2.44;52.99
13387;BME280;6763;48.524;9.044;2023-03-04T02:33:30;98281.59;;;2.42;53.32
13387;BME280;6763;48.524;9.044;2023-03-04T02:35:55;98284.97;;;2.39;53.02
13387;BME280;6763;48.524;9.044;2023-03-04T02:38:21;98285.81;;;2.38;52.89
13387;BME280;6763;48.524;9.044;2023-03-04T02:40:50;98283.19;;;2.35;53.41
13387;BME280;6763;48.524;9.044;2023-03-04T02:43:17;98287.41;;;2.35;53.40
13387;BME280;6763;48.524;9.044;2023-03-04T02:45:48;98287.41;;;2.35;53.70
13387;BME280;6763;48.524;9.044;2023-03-04T02:48:18;98281.44;;;2.33;53.73
13387;BME280;6763;48.524;9.044;2023-03-04T02:50:47;98282.25;;;2.32;53.15
13387;BME280;6763;48.524;9.044;2023-03-04T02:53:13;98283.06;;;2.31;53.21
13387;BME280;6763;48.524;9.044;2023-03-04T02:55:39;98287.25;;;2.27;52.91
13387;BME280;6763;48.524;9.044;2023-03-04T02:58:06;98282.94;;;2.25;52.90
13387;BME280;6763;48.524;9.044;2023-03-04T03:00:31;98293.97;;;2.24;53.51
13387;BME280;6763;48.524;9.044;2023-03-04T03:02:57;98293.06;;;2.20;53.69
13387;BME280;6763;48.524;9.044;2023-03-04T03:05:25;98294.78;;;2.21;53.35
13387;BME280;6763;48.524;9.044;2023-03-04T03:07:51;98292.28;;;2.23;53.30
13387;BME280;6763;48.524;9.044;2023-03-04T03:10:16;98296.50;;;2.22;53.19
13387;BME280;6763;48.524;9.044;2023-03-04T03:12:42;98288.78;;;2.19;53.02
13387;BME280;6763;48.524;9.044;2023-03-04T03:15:07;98292.16;;;2.18;53.52
13387;BME280;6763;48.524;9.044;2023-03-04T03:17:33;98289.59;;;2.18;53.04
13387;BME280;6763;48.524;9.044;2023-03-04T03:19:58;98293.00;;;2.17;52.95
13387;BME280;6763;48.524;9.044;2023-03-04T03:22:23;98295.50;;;2.16;52.77
13387;BME280;6763;48.524;9.044;2023-03-04T03:24:49;98290.38;;;2.14;53.70
13387;BME280;6763;48.524;9.044;2023-03-04T03:27:14;98297.16;;;2.14;52.81
13387;BME280;6763;48.524;9.044;2023-03-04T03:29:39;98290.28;;;2.11;53.48
13387;BME280;6763;48.524;9.044;2023-03-04T03:32:05;98291.09;;;2.09;53.26
13387;BME280;6763;48.524;9.044;2023-03-04T03:34:30;98290.19;;;2.07;53.84
13387;BME280;6763;48.524;9.044;2023-03-04T03:36:55;98296.09;;;2.04;53.25
13387;BME280;6763;48.524;9.044;2023-03-04T03:39:21;98294.28;;;2.00;53.09
13387;BME280;6763;48.524;9.044;2023-03-04T03:41:46;98290.81;;;1.97;53.12
13387;BME280;6763;48.524;9.044;2023-03-04T03:44:12;98289.88;;;1.93;53.55
13387;BME280;6763;48.524;9.044;2023-03-04T03:46:37;98298.31;;;1.89;53.35
13387;BME280;6763;48.524;9.044;2023-03-04T03:49:02;98291.38;;;1.85;53.01
13387;BME280;6763;48.524;9.044;2023-03-04T03:51:28;98283.66;;;1.82;53.50
13387;BME280;6763;48.524;9.044;2023-03-04T03:53:53;98292.94;;;1.78;53.59
13387;BME280;6763;48.524;9.044;2023-03-04T03:56:19;98284.44;;;1.79;54.03
13387;BME280;6763;48.524;9.044;2023-03-04T03:58:44;98295.53;;;1.80;54.31
13387;BME280;6763;48.524;9.044;2023-03-04T04:01:09;98291.31;;;1.82;53.87
13387;BME280;6763;48.524;9.044;2023-03-04T04:03:35;98291.31;;;1.82;53.74
13387;BME280;6763;48.524;9.044;2023-03-04T04:06:00;98289.63;;;1.82;53.27
13387;BME280;6763;48.524;9.044;2023-03-04T04:08:25;98292.16;;;1.81;53.36
13387;BME280;6763;48.524;9.044;2023-03-04T04:10:51;98295.53;;;1.80;53.76
13387;BME280;6763;48.524;9.044;2023-03-04T04:13:16;98300.59;;;1.78;53.75
13387;BME280;6763;48.524;9.044;2023-03-04T04:15:41;98290.34;;;1.77;53.82
13387;BME280;6763;48.524;9.044;2023-03-04T04:18:07;98298.00;;;1.77;53.81
13387;BME280;6763;48.524;9.044;2023-03-04T04:20:33;98295.41;;;1.75;53.98
13387;BME280;6763;48.524;9.044;2023-03-04T04:22:59;98299.66;;;1.75;53.76
13387;BME280;6763;48.524;9.044;2023-03-04T04:25:24;98293.69;;;1.74;53.49
13387;BME280;6763;48.524;9.044;2023-03-04T04:27:50;98293.69;;;1.74;53.60
13387;BME280;6763;48.524;9.044;2023-03-04T04:30:15;98291.97;;;1.73;53.97
13387;BME280;6763;48.524;9.044;2023-03-04T04:32:43;98295.34;;;1.72;53.41
13387;BME280;6763;48.524;9.044;2023-03-04T04:35:09;98291.91;;;1.70;53.39
13387;BME280;6763;48.524;9.044;2023-03-04T04:37:34;98296.91;;;1.67;53.21
13387;BME280;6763;48.524;9.044;2023-03-04T04:39:59;98292.59;;;1.63;53.26
13387;BME280;6763;48.524;9.044;2023-03-04T04:42:25;98292.44;;;1.59;53.42
13387;BME280;6763;48.524;9.044;2023-03-04T04:44:50;98298.31;;;1.55;53.30
13387;BME280;6763;48.524;9.044;2023-03-04T04:47:16;98291.38;;;1.49;53.44
13387;BME280;6763;48.524;9.044;2023-03-04T04:49:42;98293.91;;;1.48;53.39
13387;BME280;6763;48.524;9.044;2023-03-04T04:52:08;98290.50;;;1.49;53.18
13387;BME280;6763;48.524;9.044;2023-03-04T04:54:33;98293.03;;;1.47;53.24
13387;BME280;6763;48.524;9.044;2023-03-04T04:56:58;98293.91;;;1.48;53.38
13387;BME280;6763;48.524;9.044;2023-03-04T04:59:24;98294.69;;;1.45;53.33
13387;BME280;6763;48.524;9.044;2023-03-04T05:01:50;98296.38;;;1.45;53.75
13387;BME280;6763;48.524;9.044;2023-03-04T05:04:15;98298.84;;;1.43;52.82
13387;BME280;6763;48.524;9.044;2023-03-04T05:06:41;98298.78;;;1.40;53.50
13387;BME280;6763;48.524;9.044;2023-03-04T05:09:06;98305.50;;;1.37;53.08
13387;BME280;6763;48.524;9.044;2023-03-04T05:11:32;98296.81;;;1.30;53.26
13387;BME280;6763;48.524;9.044;2023-03-04T05:13:58;98292.41;;;1.24;52.76
13387;BME280;6763;48.524;9.044;2023-03-04T05:16:23;98301.63;;;1.19;52.92
13387;BME280;6763;48.524;9.044;2023-03-04T05:18:48;98296.44;;;1.15;53.00
13387;BME280;6763;48.524;9.044;2023-03-04T05:21:14;98292.97;;;1.11;52.76
13387;BME280;6763;48.524;9.044;2023-03-04T05:23:42;98295.38;;;1.07;52.95
13387;BME280;6763;48.524;9.044;2023-03-04T05:26:09;98297.00;;;1.03;53.04
13387;BME280;6763;48.524;9.044;2023-03-04T05:28:35;98292.69;;;1.02;53.33
13387;BME280;6763;48.524;9.044;2023-03-04T05:31:01;98294.44;;;1.03;53.63
13387;BME280;6763;48.524;9.044;2023-03-04T05:33:26;98288.56;;;1.06;53.01
13387;BME280;6763;48.524;9.044;2023-03-04T05:35:55;98294.47;;;1.05;53.47
13387;BME280;6763;48.524;9.044;2023-03-04T05:38:21;98283.47;;;1.06;53.49
13387;BME280;6763;48.524;9.044;2023-03-04T05:40:47;98293.69;;;1.07;53.32
13387;BME280;6763;48.524;9.044;2023-03-04T05:43:15;98289.41;;;1.06;53.12
13387;BME280;6763;48.524;9.044;2023-03-04T05:45:41;98291.88;;;1.03;53.26
13387;BME280;6763;48.524;9.044;2023-03-04T05:48:07;98295.16;;;0.99;53.16
13387;BME280;6763;48.524;9.044;2023-03-04T05:50:33;98301.94;;;0.99;53.24
13387;BME280;6763;48.524;9.044;2023-03-04T05:52:59;98295.94;;;0.97;53.54
13387;BME280;6763;48.524;9.044;2023-03-04T05:55:25;98307.78;;;0.95;53.45
13387;BME280;6763;48.524;9.044;2023-03-04T05:57:52;98302.66;;;0.93;53.12
13387;BME280;6763;48.524;9.044;2023-03-04T06:00:17;98306.88;;;0.93;53.33
13387;BME280;6763;48.524;9.044;2023-03-04T06:02:43;98305.06;;;0.89;53.07
13387;BME280;6763;48.524;9.044;2023-03-04T06:05:13;98311.00;;;0.88;53.27
13387;BME280;6763;48.524;9.044;2023-03-04T06:07:40;98308.38;;;0.85;53.23
13387;BME280;6763;48.524;9.044;2023-03-04T06:10:08;98318.50;;;0.83;53.27
13387;BME280;6763;48.524;9.044;2023-03-04T06:12:33;98311.63;;;0.81;53.54
13387;BME280;6763;48.524;9.044;2023-03-04T06:14:59;98317.50;;;0.78;52.88
13387;BME280;6763;48.524;9.044;2023-03-04T06:17:24;98323.44;;;0.77;53.20
13387;BME280;6763;48.524;9.044;2023-03-04T06:19:49;98322.53;;;0.75;52.84
13387;BME280;6763;48.524;9.044;2023-03-04T06:22:15;98326.78;;;0.76;53.18
13387;BME280;6763;48.524;9.044;2023-03-04T06:24:40;98331.09;;;0.79;53.58
13387;BME280;6763;48.524;9.044;2023-03-04T06:27:05;98333.84;;;0.85;53.56
13387;BME280;6763;48.524;9.044;2023-03-04T06:29:31;98335.69;;;0.90;53.43
13387;BME280;6763;48.524;9.044;2023-03-04T06:31:56;98331.59;;;0.95;53.90
13387;BME280;6763;48.524;9.044;2023-03-04T06:34:22;98342.66;;;0.96;53.67
13387;BME280;6763;48.524;9.044;2023-03-04T06:36:47;98347.81;;;0.99;53.94
13387;BME280;6763;48.524;9.044;2023-03-04T06:39:13;98347.91;;;1.02;54.01
13387;BME280;6763;48.524;9.044;2023-03-04T06:41:38;98345.47;;;1.06;54.14
13387;BME280;6763;48.524;9.044;2023-03-04T06:44:04;98340.53;;;1.12;54.04
13387;BME280;6763;48.524;9.044;2023-03-04T06:46:29;98350.94;;;1.20;54.33
13387;BME280;6763;48.524;9.044;2023-03-04T06:48:55;98350.31;;;1.27;54.41
13387;BME280;6763;48.524;9.044;2023-03-04T06:51:21;98358.09;;;1.33;53.80
13387;BME280;6763;48.524;9.044;2023-03-04T06:53:49;98361.69;;;1.40;54.29
13387;BME280;6763;48.524;9.044;2023-03-04T06:56:15;98357.59;;;1.46;54.24
13387;BME280;6763;48.524;9.044;2023-03-04T06:58:41;98360.34;;;1.54;54.19
13387;BME280;6763;48.524;9.044;2023-03-04T07:01:16;98363.97;;;1.62;53.88
13387;BME280;6763;48.524;9.044;2023-03-04T07:03:41;98374.34;;;1.68;54.43
13387;BME280;6763;48.524;9.044;2023-03-04T07:06:12;98370.22;;;1.74;54.46
13387;BME280;6763;48.524;9.044;2023-03-04T07:08:38;98369.59;;;1.83;54.40
13387;BME280;6763;48.524;9.044;2023-03-04T07:11:04;98371.53;;;1.92;54.31
13387;BME280;6763;48.524;9.044;2023-03-04T07:13:29;98376.91;;;2.04;54.69
13387;BME280;6763;48.524;9.044;2023-03-04T07:15:55;98374.63;;;2.14;54.37
13387;BME280;6763;48.524;9.044;2023-03-04T07:18:20;98374.88;;;2.25;54.16
13387;BME280;6763;48.524;9.044;2023-03-04T07:20:46;98375.13;;;2.35;54.81
13387;BME280;6763;48.524;9.044;2023-03-04T07:23:11;98378.75;;;2.45;54.62
13387;BME280;6763;48.524;9.044;2023-03-04T07:25:37;98366.19;;;2.54;54.40
13387;BME280;6763;48.524;9.044;2023-03-04T07:28:02;98376.66;;;2.66;54.53
13387;BME280;6763;48.524;9.044;2023-03-04T07:30:27;98378.59;;;2.78;54.61
13387;BME280;6763;48.524;9.044;2023-03-04T07:32:56;98373.84;;;2.94;54.75
13387;BME280;6763;48.524;9.044;2023-03-04T07:35:22;98375.03;;;3.10;54.92
13387;BME280;6763;48.524;9.044;2023-03-04T07:37:47;98372.75;;;3.25;55.26
13387;BME280;6763;48.524;9.044;2023-03-04T07:40:13;98377.28;;;3.38;55.39
13387;BME280;6763;48.524;9.044;2023-03-04T07:42:38;98380.16;;;3.55;55.26
13387;BME280;6763;48.524;9.044;2023-03-04T07:45:04;98383.88;;;3.70;55.07
13387;BME280;6763;48.524;9.044;2023-03-04T07:47:30;98372.19;;;3.86;55.48
13387;BME280;6763;48.524;9.044;2023-03-04T07:49:56;98374.97;;;4.00;55.39
13387;BME280;6763;48.524;9.044;2023-03-04T07:52:21;98376.06;;;4.15;55.27
13387;BME280;6763;48.524;9.044;2023-03-04T07:54:49;98374.59;;;4.28;55.16
13387;BME280;6763;48.524;9.044;2023-03-04T07:57:14;98381.59;;;4.39;54.94
13387;BME280;6763;48.524;9.044;2023-03-04T07:59:40;98379.25;;;4.53;55.13
13387;BME280;6763;48.524;9.044;2023-03-04T08:02:05;98380.25;;;4.66;55.20
13387;BME280;6763;48.524;9.044;2023-03-04T08:04:33;98377.91;;;4.81;55.49
13387;BME280;6763;48.524;9.044;2023-03-04T08:06:58;98378.13;;;4.97;55.21
13387;BME280;6763;48.524;9.044;2023-03-04T08:09:24;98384.28;;;5.12;55.34
13387;BME280;6763;48.524;9.044;2023-03-04T08:11:49;98373.38;;;5.28;55.29
13387;BME280;6763;48.524;9.044;2023-03-04T08:14:15;98385.50;;;5.42;55.59
13387;BME280;6763;48.524;9.044;2023-03-04T08:16:41;98387.41;;;5.58;54.82
13387;BME280;6763;48.524;9.044;2023-03-04T08:19:06;98390.13;;;5.72;55.05
13387;BME280;6763;48.524;9.044;2023-03-04T08:21:33;98390.28;;;5.86;54.45
13387;BME280;6763;48.524;9.044;2023-03-04T08:23:59;98390.38;;;5.99;55.05
13387;BME280;6763;48.524;9.044;2023-03-04T08:26:32;98387.97;;;6.17;54.82
13387;BME280;6763;48.524;9.044;2023-03-04T08:29:01;98388.16;;;6.39;54.96
13387;BME280;6763;48.524;9.044;2023-03-04T08:31:27;98393.44;;;6.60;54.76
13387;BME280;6763;48.524;9.044;2023-03-04T08:33:52;98385.91;;;6.84;54.71
13387;BME280;6763;48.524;9.044;2023-03-04T08:36:18;98388.56;;;7.04;54.25
13387;BME280;6763;48.524;9.044;2023-03-04T08:38:43;98391.25;;;7.23;53.37
13387;BME280;6763;48.524;9.044;2023-03-04T08:41:09;98389.59;;;7.40;53.64
13387;BME280;6763;48.524;9.044;2023-03-04T08:43:34;98393.94;;;7.63;53.68
13387;BME280;6763;48.524;9.044;2023-03-04T08:46:00;98386.25;;;7.87;53.38
13387;BME280;6763;48.524;9.044;2023-03-04T08:48:26;98391.47;;;8.14;53.75
13387;BME280;6763;48.524;9.044;2023-03-04T08:50:51;98394.94;;;8.48;53.66
13387;BME280;6763;48.524;9.044;2023-03-04T08:53:18;98394.03;;;8.79;51.51
13387;BME280;6763;48.524;9.044;2023-03-04T08:55:43;98397.44;;;8.86;48.97
13387;BME280;6763;48.524;9.044;2023-03-04T08:58:09;98391.44;;;8.78;47.97
13387;BME280;6763;48.524;9.044;2023-03-04T09:00:37;98393.16;;;8.77;48.42
13387;BME280;6763;48.524;9.044;2023-03-04T09:03:03;98398.34;;;8.79;47.13
13387;BME280;6763;48.524;9.044;2023-03-04T09:05:29;98401.78;;;8.76;46.94
13387;BME280;6763;48.524;9.044;2023-03-04T09:07:55;98406.94;;;8.64;45.77
13387;BME280;6763;48.524;9.044;2023-03-04T09:10:20;98415.53;;;8.51;45.13
13387;BME280;6763;48.524;9.044;2023-03-04T09:12:46;98409.47;;;8.17;45.31
13387;BME280;6763;48.524;9.044;2023-03-04T09:15:11;98398.31;;;7.98;45.18
13387;BME280;6763;48.524;9.044;2023-03-04T09:17:38;98425.75;;;7.78;45.45
13387;BME280;6763;48.524;9.044;2023-03-04T09:20:05;98419.72;;;7.69;45.90
13387;BME280;6763;48.524;9.044;2023-03-04T09:22:33;98421.44;;;7.67;45.74
13387;BME280;6763;48.524;9.044;2023-03-04T09:24:58;98420.56;;;7.66;45.91
13387;BME280;6763;48.524;9.044;2023-03-04T09:27:23;98423.16;;;7.68;45.84
13387;BME280;6763;48.524;9.044;2023-03-04T09:29:49;98420.59;;;7.72;45.66
13387;BME280;6763;48.524;9.044;2023-03-04T09:32:14;98420.59;;;7.72;45.52
13387;BME280;6763;48.524;9.044;2023-03-04T09:34:42;98423.16;;;7.78;45.58
13387;BME280;6763;48.524;9.044;2023-03-04T09:37:08;98412.03;;;7.82;45.49
13387;BME280;6763;48.524;9.044;2023-03-04T09:39:33;98412.06;;;7.96;45.69
13387;BME280;6763;48.524;9.044;2023-03-04T09:41:59;98411.22;;;8.17;45.45
13387;BME280;6763;48.524;9.044;2023-03-04T09:46:56;98412.97;;;8.60;44.96
13387;BME280;6763;48.524;9.044;2023-03-04T09:49:23;98424.16;;;8.74;44.54
13387;BME280;6763;48.524;9.044;2023-03-04T09:51:56;98425.84;;;8.86;44.26
13387;BME280;6763;48.524;9.044;2023-03-04T09:55:03;98421.53;;;9.00;44.07
13387;BME280;6763;48.524;9.044;2023-03-04T09:57:41;98420.63;;;9.08;42.99
13387;BME280;6763;48.524;9.044;2023-03-04T10:00:16;98418.09;;;8.89;43.28
13387;BME280;6763;48.524;9.044;2023-03-04T10:03:24;98418.13;;;8.54;43.82
13387;BME280;6763;48.524;9.044;2023-03-04T10:05:58;98416.41;;;8.44;43.59
13387;BME280;6763;48.524;9.044;2023-03-04T10:11:08;98412.09;;;8.35;44.67
13387;BME280;6763;48.524;9.044;2023-03-04T10:16:13;98411.25;;;8.60;44.17
13387;BME280;6763;48.524;9.044;2023-03-04T10:18:55;98400.03;;;8.84;43.86
13387;BME280;6763;48.524;9.044;2023-03-04T10:21:34;98401.72;;;8.96;43.44
13387;BME280;6763;48.524;9.044;2023-03-04T10:24:13;98399.97;;;9.05;42.83
13387;BME280;6763;48.524;9.044;2023-03-04T10:26:44;98401.72;;;8.90;43.24
13387;BME280;6763;48.524;9.044;2023-03-04T10:29:15;98398.31;;;8.80;43.52
13387;BME280;6763;48.524;9.044;2023-03-04T10:31:41;98398.31;;;8.86;43.84
13387;BME280;6763;48.524;9.044;2023-03-04T10:34:09;98409.50;;;8.88;43.54
13387;BME280;6763;48.524;9.044;2023-03-04T10:39:24;98406.03;;;8.94;43.24
13387;BME280;6763;48.524;9.044;2023-03-04T10:44:51;98404.31;;;8.90;42.99
13387;BME280;6763;48.524;9.044;2023-03-04T10:47:16;98407.75;;;8.93;43.23
13387;BME280;6763;48.524;9.044;2023-03-04T10:49:50;98398.28;;;9.04;42.55
13387;BME280;6763;48.524;9.044;2023-03-04T10:52:31;98401.69;;;9.11;42.60
13387;BME280;6763;48.524;9.044;2023-03-04T10:55:05;98398.25;;;9.09;42.23
13387;BME280;6763;48.524;9.044;2023-03-04T10:57:42;98391.38;;;9.08;41.84
13387;BME280;6763;48.524;9.044;2023-03-04T11:00:57;98396.53;;;9.12;41.98
13387;BME280;6763;48.524;9.044;2023-03-04T11:03:28;98387.84;;;9.27;42.36
13387;BME280;6763;48.524;9.044;2023-03-04T11:06:17;98398.16;;;9.36;41.63
13387;BME280;6763;48.524;9.044;2023-03-04T11:08:43;98396.38;;;9.47;41.45
13387;BME280;6763;48.524;9.044;2023-03-04T11:11:27;98388.59;;;9.59;41.34
13387;BME280;6763;48.524;9.044;2023-03-04T11:13:58;98377.25;;;9.78;41.13
13387;BME280;6763;48.524;9.044;2023-03-04T11:16:30;98378.91;;;9.90;41.23
13387;BME280;6763;48.524;9.044;2023-03-04T11:19:15;98373.59;;;10.11;40.31
13387;BME280;6763;48.524;9.044;2023-03-04T11:21:42;98370.84;;;10.34;39.77
13387;BME280;6763;48.524;9.044;2023-03-04T11:24:26;98371.72;;;10.33;39.17
13387;BME280;6763;48.524;9.044;2023-03-04T11:27:17;98366.38;;;10.55;39.02
13387;BME280;6763;48.524;9.044;2023-03-04T11:29:54;98368.50;;;10.98;38.71
13387;BME280;6763;48.524;9.044;2023-03-04T11:32:30;98353.34;;;11.36;38.12
13387;BME280;6763;48.524;9.044;2023-03-04T11:40:35;98348.19;;;12.00;36.75
13387;BME280;6763;48.524;9.044;2023-03-04T11:45:50;98346.84;;;11.75;35.79
13387;BME280;6763;48.524;9.044;2023-03-04T11:56:43;98332.44;;;11.50;36.80
13387;BME280;6763;48.524;9.044;2023-03-04T11:59:24;98341.00;;;11.55;36.86
13387;BME280;6763;48.524;9.044;2023-03-04T12:02:29;98320.09;;;11.70;36.57
13387;BME280;6763;48.524;9.044;2023-03-04T12:13:00;98307.78;;;12.36;35.27
13387;BME280;6763;48.524;9.044;2023-03-04T12:15:48;98306.59;;;12.55;35.02
13387;BME280;6763;48.524;9.044;2023-03-04T12:29:17;98280.03;;;13.28;34.00
13387;BME280;6763;48.524;9.044;2023-03-04T12:31:44;98267.69;;;13.38;33.24
13387;BME280;6763;48.524;9.044;2023-03-04T12:34:26;98262.44;;;13.41;32.82
13387;BME280;6763;48.524;9.044;2023-03-04T12:39:40;98254.47;;;13.47;33.83
13387;BME280;6763;48.524;9.044;2023-03-04T12:47:49;98246.53;;;13.90;32.91
13387;BME280;6763;48.524;9.044;2023-03-04T12:50:41;98240.22;;;13.98;31.98
13387;BME280;6763;48.524;9.044;2023-03-04T12:53:20;98236.69;;;14.01;31.86
13387;BME280;6763;48.524;9.044;2023-03-04T12:55:54;98243.41;;;14.11;31.73
13387;BME280;6763;48.524;9.044;2023-03-04T12:58:23;98235.38;;;13.85;31.07
13387;BME280;6763;48.524;9.044;2023-03-04T13:16:41;98227.28;;;13.23;30.89
13387;BME280;6763;48.524;9.044;2023-03-04T13:22:46;98222.59;;;12.99;31.11
13387;BME280;6763;48.524;9.044;2023-03-04T13:38:35;98220.06;;;12.96;30.93
13387;BME280;6763;48.524;9.044;2023-03-04T13:43:48;98212.75;;;13.15;30.99
13387;BME280;6763;48.524;9.044;2023-03-04T13:48:44;98218.13;;;13.45;30.74
13387;BME280;6763;48.524;9.044;2023-03-04T13:51:25;98212.31;;;13.34;30.71
13387;BME280;6763;48.524;9.044;2023-03-04T13:56:34;98219.34;;;12.88;31.18
13387;BME280;6763;48.524;9.044;2023-03-04T13:59:15;98221.56;;;12.65;31.20
13387;BME280;6763;48.524;9.044;2023-03-04T14:06:49;98210.56;;;14.05;29.62
13387;BME280;6763;48.524;9.044;2023-03-04T14:09:19;98207.13;;;14.03;29.53
13387;BME280;6763;48.524;9.044;2023-03-04T14:11:46;98200.84;;;13.78;29.45
13387;BME280;6763;48.524;9.044;2023-03-04T14:14:14;98200.13;;;13.36;30.34
13387;BME280;6763;48.524;9.044;2023-03-04T14:16:51;98208.03;;;12.90;30.48
13387;BME280;6763;48.524;9.044;2023-03-04T14:19:29;98209.50;;;12.61;31.65
13387;BME280;6763;48.524;9.044;2023-03-04T14:21:55;98210.25;;;12.67;31.06
13387;BME280;6763;48.524;9.044;2023-03-04T14:24:22;98205.94;;;12.68;31.59
13387;BME280;6763;48.524;9.044;2023-03-04T14:26:48;98210.22;;;12.69;31.29
13387;BME280;6763;48.524;9.044;2023-03-04T14:29:28;98194.56;;;12.73;31.59
13387;BME280;6763;48.524;9.044;2023-03-04T14:31:55;98194.88;;;12.98;30.93
13387;BME280;6763;48.524;9.044;2023-03-04T14:34:28;98183.75;;;13.33;29.94
13387;BME280;6763;48.524;9.044;2023-03-04T14:36:56;98182.81;;;13.35;29.99
13387;BME280;6763;48.524;9.044;2023-03-04T14:39:24;98169.63;;;13.43;30.41
13387;BME280;6763;48.524;9.044;2023-03-04T14:41:52;98182.97;;;13.29;29.74
13387;BME280;6763;48.524;9.044;2023-03-04T14:46:50;98189.06;;;12.87;30.79
13387;BME280;6763;48.524;9.044;2023-03-04T14:49:17;98188.19;;;12.45;31.19
13387;BME280;6763;48.524;9.044;2023-03-04T14:51:48;98186.38;;;12.06;32.16
13387;BME280;6763;48.524;9.044;2023-03-04T14:57:00;98190.59;;;11.58;32.78
13387;BME280;6763;48.524;9.044;2023-03-04T14:59:35;98191.59;;;11.51;33.02
13387;BME280;6763;48.524;9.044;2023-03-04T15:02:37;98188.38;;;11.35;33.08
13387;BME280;6763;48.524;9.044;2023-03-04T15:05:16;98182.31;;;11.38;33.39
13387;BME280;6763;48.524;9.044;2023-03-04T15:07:42;98184.06;;;11.36;33.46
13387;BME280;6763;48.524;9.044;2023-03-04T15:10:11;98182.31;;;11.36;33.51
13387;BME280;6763;48.524;9.044;2023-03-04T15:12:37;98187.56;;;11.32;33.85
13387;BME280;6763;48.524;9.044;2023-03-04T15:18:00;98190.78;;;10.88;34.08
13387;BME280;6763;48.524;9.044;2023-03-04T15:20:28;98191.78;;;10.78;34.44